createdAt,value
2022-10-19T00:01:19.133Z,7.20
2022-10-19T00:06:32.386Z,8.10
2022-10-19T00:09:03.612Z,7.30
2022-10-19T00:11:33.247Z,7.00
2022-10-19T00:14:01.672Z,6.60
2022-10-19T00:16:34.022Z,5.60
2022-10-19T00:19:04.633Z,7.20
2022-10-19T00:21:32.930Z,6.00
2022-10-19T00:24:00.712Z,5.60
2022-10-19T00:26:28.602Z,5.70
2022-10-19T00:28:56.953Z,6.70
2022-10-19T00:31:25.642Z,7.00
2022-10-19T00:33:56.800Z,6.80
2022-10-19T00:36:26.664Z,6.10
2022-10-19T00:38:55.609Z,6.40
2022-10-19T00:41:27.503Z,7.10
2022-10-19T00:44:04.283Z,7.30
2022-10-19T00:46:35.936Z,7.80
2022-10-19T00:49:20.541Z,8.70
2022-10-19T00:52:01.821Z,10.60
2022-10-19T00:54:33.027Z,11.20
2022-10-19T00:57:01.057Z,11.60
2022-10-19T00:59:31.944Z,11.90
2022-10-19T01:02:02.808Z,13.00
2022-10-19T01:04:34.039Z,15.70
2022-10-19T01:07:04.731Z,12.80
2022-10-19T01:09:32.569Z,13.80
2022-10-19T01:12:33.229Z,12.20
2022-10-19T01:15:29.007Z,9.50
2022-10-19T01:18:22.397Z,11.00
2022-10-19T01:21:08.481Z,11.80
2022-10-19T01:23:39.462Z,12.10
2022-10-19T01:26:42.875Z,14.50
2022-10-19T01:29:16.744Z,12.20
2022-10-19T01:31:57.975Z,12.10
2022-10-19T01:34:32.610Z,11.80
2022-10-19T01:37:24.656Z,15.10
2022-10-19T01:40:03.079Z,13.50
2022-10-19T01:42:56.878Z,14.00
2022-10-19T01:45:36.702Z,17.30
2022-10-19T01:48:14.616Z,14.20
2022-10-19T01:50:59.229Z,16.80
2022-10-19T01:53:32.555Z,14.90
2022-10-19T01:56:03.422Z,13.90
2022-10-19T01:58:35.967Z,14.00
2022-10-19T02:01:08.489Z,12.40
2022-10-19T02:03:38.176Z,12.10
2022-10-19T02:06:09.071Z,13.60
2022-10-19T02:08:52.310Z,14.60
2022-10-19T02:11:22.329Z,15.40
2022-10-19T02:13:54.913Z,15.30
2022-10-19T02:16:29.406Z,15.40
2022-10-19T02:19:00.266Z,14.60
2022-10-19T02:21:28.865Z,15.50
2022-10-19T02:23:56.677Z,15.20
2022-10-19T02:26:24.510Z,14.70
2022-10-19T02:28:55.174Z,14.60
2022-10-19T02:31:23.695Z,16.30
2022-10-19T02:33:51.975Z,14.20
2022-10-19T02:36:20.207Z,16.20
2022-10-19T02:38:48.148Z,16.40
2022-10-19T02:41:20.874Z,16.70
2022-10-19T02:43:51.652Z,16.60
2022-10-19T02:49:14.433Z,17.90
2022-10-19T02:52:09.146Z,17.90
2022-10-19T02:54:38.185Z,20.60
2022-10-19T02:57:16.668Z,18.10
2022-10-19T02:59:44.781Z,17.60
2022-10-19T03:02:13.679Z,18.60
2022-10-19T03:04:41.916Z,17.30
2022-10-19T03:07:10.681Z,17.60
2022-10-19T03:09:38.527Z,17.80
2022-10-19T03:12:06.531Z,16.90
2022-10-19T03:14:34.380Z,14.90
2022-10-19T03:17:02.945Z,14.70
2022-10-19T03:19:30.994Z,13.90
2022-10-19T03:21:58.831Z,13.40
2022-10-19T03:24:27.094Z,13.30
2022-10-19T03:26:54.920Z,12.60
2022-10-19T03:29:22.947Z,12.90
2022-10-19T03:31:50.774Z,13.30
2022-10-19T03:34:18.751Z,13.90
2022-10-19T03:36:46.676Z,12.70
2022-10-19T03:39:16.175Z,12.60
2022-10-19T03:41:44.351Z,12.40
2022-10-19T03:44:12.261Z,11.90
2022-10-19T03:46:40.392Z,12.90
2022-10-19T03:49:09.330Z,12.00
2022-10-19T03:51:37.257Z,11.80
2022-10-19T03:54:08.093Z,22.90
2022-10-19T03:56:36.543Z,12.70
2022-10-19T03:59:06.386Z,12.00
2022-10-19T04:01:39.921Z,11.30
2022-10-19T04:04:12.544Z,12.30
2022-10-19T04:06:42.347Z,12.10
2022-10-19T04:09:13.973Z,11.50
2022-10-19T04:11:42.391Z,12.10
2022-10-19T04:14:18.998Z,11.50
2022-10-19T04:19:22.657Z,10.90
2022-10-19T04:21:50.543Z,11.30
2022-10-19T04:24:19.093Z,11.40
2022-10-19T04:26:49.755Z,12.60
2022-10-19T04:29:19.807Z,12.90
2022-10-19T04:31:52.242Z,11.30
2022-10-19T04:34:20.175Z,14.90
2022-10-19T04:36:48.082Z,11.50
2022-10-19T04:39:16.026Z,10.40
2022-10-19T04:41:43.840Z,11.50
2022-10-19T04:44:11.958Z,10.40
2022-10-19T04:46:39.913Z,11.50
2022-10-19T04:49:07.883Z,10.60
2022-10-19T04:51:35.856Z,12.70
2022-10-19T04:54:04.489Z,11.30
2022-10-19T04:56:32.853Z,12.10
2022-10-19T04:59:01.401Z,13.20
2022-10-19T05:01:30.915Z,15.40
2022-10-19T05:04:01.161Z,13.20
2022-10-19T05:06:30.861Z,12.80
2022-10-19T05:08:59.387Z,13.50
2022-10-19T05:11:28.042Z,14.10
2022-10-19T05:14:00.730Z,13.00
2022-10-19T05:16:28.649Z,12.30
2022-10-19T05:18:58.798Z,14.40
2022-10-19T05:21:29.028Z,13.70
2022-10-19T05:23:57.435Z,14.50
2022-10-19T05:26:27.357Z,14.50
2022-10-19T05:29:01.984Z,14.70
2022-10-19T05:31:34.466Z,14.10
2022-10-19T05:34:04.176Z,15.20
2022-10-19T05:36:37.143Z,16.50
2022-10-19T05:39:16.637Z,15.40
2022-10-19T05:41:46.342Z,15.30
2022-10-19T05:44:24.581Z,13.50
2022-10-19T05:46:52.821Z,16.70
2022-10-19T05:49:22.241Z,17.40
2022-10-19T05:51:50.801Z,15.90
2022-10-19T05:54:18.798Z,18.70
2022-10-19T05:56:47.536Z,18.70
2022-10-19T05:59:18.401Z,17.80
2022-10-19T06:01:47.532Z,26.90
2022-10-19T06:06:46.054Z,23.90
2022-10-19T06:09:13.922Z,22.50
2022-10-19T06:11:42.960Z,17.00
2022-10-19T06:14:15.804Z,20.60
2022-10-19T06:16:46.142Z,15.80
2022-10-19T06:19:14.590Z,18.10
2022-10-19T06:21:45.891Z,16.60
2022-10-19T06:24:14.269Z,15.50
2022-10-19T06:26:42.427Z,16.60
2022-10-19T06:29:11.464Z,16.70
2022-10-19T06:31:39.469Z,17.30
2022-10-19T06:34:07.591Z,21.00
2022-10-19T06:36:35.641Z,23.60
2022-10-19T06:39:04.274Z,24.70
2022-10-19T06:41:32.921Z,25.90
2022-10-19T06:44:08.800Z,23.80
2022-10-19T06:46:36.704Z,25.20
2022-10-19T06:49:04.513Z,28.60
2022-10-19T06:51:34.198Z,29.30
2022-10-19T06:54:02.106Z,23.00
2022-10-19T06:56:29.951Z,22.10
2022-10-19T06:58:58.462Z,21.40
2022-10-19T07:01:26.384Z,21.00
2022-10-19T07:03:55.371Z,21.40
2022-10-19T07:06:23.867Z,20.10
2022-10-19T07:08:52.348Z,21.20
2022-10-19T07:11:22.574Z,22.20
2022-10-19T07:13:52.631Z,22.40
2022-10-19T07:16:21.786Z,19.80
2022-10-19T07:18:52.080Z,18.70
2022-10-19T07:21:22.430Z,18.20
2022-10-19T07:23:50.613Z,23.10
2022-10-19T07:26:23.857Z,20.50
2022-10-19T07:28:52.492Z,23.90
2022-10-19T07:31:22.380Z,23.40
2022-10-19T07:33:57.975Z,22.90
2022-10-19T07:36:27.224Z,20.50
2022-10-19T07:38:55.205Z,22.10
2022-10-19T07:41:24.921Z,25.30
2022-10-19T07:43:53.864Z,25.60
2022-10-19T07:46:25.531Z,23.60
2022-10-19T07:48:53.823Z,23.80
2022-10-19T07:51:22.746Z,25.10
2022-10-19T07:53:50.636Z,22.80
2022-10-19T07:56:21.327Z,24.80
2022-10-19T07:58:54.573Z,23.30
2022-10-19T08:01:28.901Z,23.10
2022-10-19T08:04:55.619Z,25.50
2022-10-19T08:06:46.943Z,26.80
2022-10-19T08:09:33.514Z,23.50
2022-10-19T08:12:04.593Z,23.40
2022-10-19T08:14:33.253Z,24.80
2022-10-19T08:17:01.956Z,22.00
2022-10-19T08:19:29.936Z,19.30
2022-10-19T08:21:57.730Z,19.00
2022-10-19T08:24:25.543Z,22.00
2022-10-19T08:26:53.394Z,22.80
2022-10-19T08:29:22.673Z,16.20
2022-10-19T08:31:53.107Z,16.70
2022-10-19T08:34:22.144Z,14.70
2022-10-19T08:36:49.986Z,18.20
2022-10-19T08:39:18.353Z,18.10
2022-10-19T08:42:03.598Z,13.40
2022-10-19T08:44:40.282Z,12.10
2022-10-19T08:47:19.743Z,14.30
2022-10-19T08:49:51.203Z,10.10
2022-10-19T08:52:34.260Z,12.20
2022-10-19T08:55:09.238Z,13.80
2022-10-19T08:57:53.234Z,9.70
2022-10-19T09:00:36.076Z,12.10
2022-10-19T09:03:37.518Z,15.20
2022-10-19T09:06:59.356Z,11.60
2022-10-19T09:09:30.422Z,11.50
2022-10-19T09:12:05.533Z,11.10
2022-10-19T09:14:42.682Z,14.70
2022-10-19T09:17:14.334Z,17.80
2022-10-19T09:19:42.178Z,12.70
2022-10-19T09:22:20.753Z,15.80
2022-10-19T09:24:52.532Z,15.40
2022-10-19T09:27:26.189Z,9.20
2022-10-19T09:30:01.399Z,13.40
2022-10-19T09:32:36.103Z,11.20
2022-10-19T09:35:17.304Z,11.10
2022-10-19T09:37:49.354Z,10.90
2022-10-19T09:40:20.121Z,11.00
2022-10-19T09:42:53.055Z,21.50
2022-10-19T09:45:33.888Z,13.90
2022-10-19T09:48:12.770Z,10.50
2022-10-19T09:50:44.632Z,10.50
2022-10-19T09:53:20.339Z,10.10
2022-10-19T09:55:58.627Z,7.30
2022-10-19T09:58:32.203Z,8.50
2022-10-19T10:01:03.257Z,6.40
2022-10-19T10:03:36.447Z,6.90
2022-10-19T10:06:08.349Z,10.00
2022-10-19T10:08:47.075Z,6.80
2022-10-19T10:11:23.587Z,5.20
2022-10-19T10:13:54.292Z,5.90
2022-10-19T10:16:25.095Z,6.70
2022-10-19T10:19:19.297Z,4.70
2022-10-19T10:21:49.984Z,8.30
2022-10-19T10:24:20.802Z,7.30
2022-10-19T10:26:54.137Z,7.70
2022-10-19T10:29:25.608Z,4.80
2022-10-19T10:31:59.351Z,7.00
2022-10-19T10:34:51.896Z,7.30
2022-10-19T10:37:28.430Z,8.50
2022-10-19T10:40:01.888Z,5.00
2022-10-19T10:42:43.770Z,7.90
2022-10-19T10:45:24.057Z,7.20
2022-10-19T10:47:53.628Z,10.80
2022-10-19T10:50:26.122Z,7.70
2022-10-19T10:53:00.135Z,6.90
2022-10-19T10:55:29.161Z,10.70
2022-10-19T10:58:34.518Z,8.00
2022-10-19T11:01:07.638Z,11.20
2022-10-19T11:03:39.627Z,10.50
2022-10-19T11:06:09.199Z,9.60
2022-10-19T11:09:08.047Z,13.50
2022-10-19T11:11:41.969Z,9.70
2022-10-19T11:14:36.545Z,9.90
2022-10-19T11:17:16.315Z,9.80
2022-10-19T11:19:47.010Z,10.00
2022-10-19T11:22:33.327Z,10.80
2022-10-19T11:25:27.563Z,7.60
2022-10-19T11:28:01.031Z,6.30
2022-10-19T11:30:41.557Z,8.00
2022-10-19T11:33:33.879Z,8.80
2022-10-19T11:36:17.328Z,9.20
2022-10-19T11:38:51.485Z,7.50
2022-10-19T11:41:42.392Z,7.50
2022-10-19T11:44:21.311Z,15.60
2022-10-19T11:47:21.572Z,9.30
2022-10-19T11:49:49.438Z,9.20
2022-10-19T11:52:51.583Z,11.10
2022-10-19T11:55:22.262Z,11.20
2022-10-19T11:58:06.671Z,11.50
2022-10-19T12:00:44.528Z,8.50
2022-10-19T12:03:59.320Z,10.70
2022-10-19T12:06:40.418Z,10.60
2022-10-19T12:09:21.008Z,9.20
2022-10-19T12:12:30.715Z,13.90
2022-10-19T12:15:15.083Z,8.80
2022-10-19T12:17:47.721Z,7.80
2022-10-19T12:20:42.993Z,8.00
2022-10-19T12:23:23.107Z,18.00
2022-10-19T12:25:51.784Z,9.70
2022-10-19T12:28:27.881Z,12.80
2022-10-19T12:30:57.931Z,12.10
2022-10-19T12:33:56.362Z,10.10
2022-10-19T12:36:33.259Z,10.00
2022-10-19T12:39:13.437Z,9.40
2022-10-19T12:41:41.272Z,9.90
2022-10-19T12:47:01.727Z,10.60
2022-10-19T12:49:29.576Z,11.20
2022-10-19T12:51:59.848Z,9.10
2022-10-19T12:54:31.288Z,8.80
2022-10-19T12:57:02.792Z,10.70
2022-10-19T12:59:36.424Z,14.10
2022-10-19T13:02:29.870Z,9.10
2022-10-19T13:04:58.085Z,13.00
2022-10-19T13:07:27.586Z,9.90
2022-10-19T13:10:04.419Z,9.20
2022-10-19T13:12:44.570Z,12.80
2022-10-19T13:15:34.230Z,15.40
2022-10-19T13:18:11.623Z,9.70
2022-10-19T13:23:28.366Z,12.90
2022-10-19T13:26:23.268Z,14.50
2022-10-19T13:28:55.514Z,13.80
2022-10-19T13:31:29.575Z,8.90
2022-10-19T13:33:58.341Z,8.80
2022-10-19T13:36:26.872Z,9.20
2022-10-19T13:39:00.788Z,11.90
2022-10-19T13:41:47.068Z,12.50
2022-10-19T13:44:16.223Z,8.60
2022-10-19T13:46:53.786Z,9.90
2022-10-19T13:49:32.464Z,11.10
2022-10-19T13:52:09.360Z,13.00
2022-10-19T13:54:43.142Z,11.40
2022-10-19T13:57:17.929Z,13.90
2022-10-19T14:00:13.330Z,13.20
2022-10-19T14:02:47.279Z,14.80
2022-10-19T14:08:37.421Z,12.20
2022-10-19T14:11:14.436Z,12.40
2022-10-19T14:13:43.633Z,13.20
2022-10-19T14:16:20.542Z,12.30
2022-10-19T14:18:56.315Z,17.20
2022-10-19T14:21:36.946Z,11.00
2022-10-19T14:24:20.584Z,11.60
2022-10-19T14:26:48.532Z,9.50
2022-10-19T14:29:16.417Z,10.80
2022-10-19T14:31:44.324Z,11.20
2022-10-19T14:34:14.360Z,9.70
2022-10-19T14:36:48.975Z,10.10
2022-10-19T14:39:43.087Z,7.70
2022-10-19T14:42:10.954Z,8.90
2022-10-19T14:44:43.619Z,8.20
2022-10-19T14:47:31.760Z,10.10
2022-10-19T14:49:59.573Z,7.70
2022-10-19T14:52:38.352Z,7.70
2022-10-19T14:55:17.849Z,8.10
2022-10-19T14:57:50.664Z,9.70
2022-10-19T15:00:21.328Z,8.70
2022-10-19T15:03:02.051Z,10.70
2022-10-19T15:05:34.573Z,9.90
2022-10-19T15:08:11.628Z,9.60
2022-10-19T15:10:44.033Z,11.90
2022-10-19T15:13:42.277Z,7.90
2022-10-19T15:16:30.321Z,10.60
2022-10-19T15:19:06.957Z,17.70
2022-10-19T15:21:34.854Z,12.10
2022-10-19T15:24:27.603Z,9.90
2022-10-19T15:27:08.640Z,10.60
2022-10-19T15:29:37.638Z,8.90
2022-10-19T15:32:22.364Z,8.60
2022-10-19T15:34:50.611Z,8.90
2022-10-19T15:37:21.054Z,7.60
2022-10-19T15:39:51.292Z,8.40
2022-10-19T15:42:40.942Z,8.00
2022-10-19T15:45:29.216Z,10.10
2022-10-19T15:48:28.201Z,9.50
2022-10-19T15:50:57.036Z,7.90
2022-10-19T15:53:26.130Z,8.30
2022-10-19T15:55:54.060Z,11.60
2022-10-19T15:58:21.988Z,10.20
2022-10-19T16:00:49.842Z,9.70
2022-10-19T16:03:17.688Z,8.50
2022-10-19T16:05:45.787Z,9.50
2022-10-19T16:08:13.639Z,9.70
2022-10-19T16:10:41.552Z,11.30
2022-10-19T16:13:09.371Z,11.30
2022-10-19T16:15:37.479Z,7.40
2022-10-19T16:18:05.359Z,10.30
2022-10-19T16:20:33.244Z,11.10
2022-10-19T16:23:01.087Z,13.40
2022-10-19T16:25:28.944Z,13.60
2022-10-19T16:27:56.796Z,9.80
2022-10-19T16:30:24.635Z,9.30
2022-10-19T16:32:53.159Z,8.90
2022-10-19T16:35:21.010Z,8.90
2022-10-19T16:37:48.862Z,12.30
2022-10-19T16:40:16.796Z,14.70
2022-10-19T16:42:44.728Z,10.50
2022-10-19T16:45:12.567Z,12.30
2022-10-19T16:47:40.378Z,11.50
2022-10-19T16:50:10.131Z,13.80
2022-10-19T16:52:38.307Z,11.50
2022-10-19T16:55:07.063Z,12.70
2022-10-19T16:57:35.028Z,14.00
2022-10-19T17:00:03.050Z,13.90
2022-10-19T17:02:30.913Z,13.20
2022-10-19T17:04:58.720Z,11.20
2022-10-19T17:07:26.568Z,12.50
2022-10-19T17:09:55.039Z,13.30
2022-10-19T17:12:22.992Z,13.80
2022-10-19T17:14:51.402Z,13.50
2022-10-19T17:17:19.334Z,14.30
2022-10-19T17:19:48.334Z,10.20
2022-10-19T17:22:16.186Z,14.70
2022-10-19T17:24:46.383Z,12.90
2022-10-19T17:27:14.723Z,11.40
2022-10-19T17:29:42.800Z,15.30
2022-10-19T17:32:10.668Z,24.50
2022-10-19T17:34:38.718Z,11.80
2022-10-19T17:37:06.597Z,18.80
2022-10-19T17:39:34.573Z,15.20
2022-10-19T17:42:04.316Z,20.10
2022-10-19T17:44:32.558Z,16.00
2022-10-19T17:47:01.550Z,15.80
2022-10-19T17:49:30.095Z,14.50
2022-10-19T17:51:58.455Z,15.30
2022-10-19T17:54:26.526Z,16.20
2022-10-19T17:56:54.480Z,17.20
2022-10-19T17:59:46.771Z,16.80
2022-10-19T18:02:20.419Z,17.80
2022-10-19T18:04:48.256Z,19.10
2022-10-19T18:07:16.283Z,17.40
2022-10-19T18:09:44.189Z,16.30
2022-10-19T18:12:13.475Z,19.80
2022-10-19T18:14:41.573Z,21.90
2022-10-19T18:17:09.433Z,18.20
2022-10-19T18:19:37.373Z,24.30
2022-10-19T18:22:05.216Z,20.40
2022-10-19T18:24:34.777Z,19.70
2022-10-19T18:27:02.571Z,23.00
2022-10-19T18:29:30.444Z,17.40
2022-10-19T18:31:59.198Z,20.80
2022-10-19T18:34:27.338Z,19.50
2022-10-19T18:36:55.362Z,22.40
2022-10-19T18:39:23.504Z,23.90
2022-10-19T18:41:54.973Z,18.40
2022-10-19T18:44:27.138Z,19.20
2022-10-19T18:46:57.083Z,21.40
2022-10-19T18:49:25.754Z,20.80
2022-10-19T18:51:55.768Z,19.60
2022-10-19T18:54:26.371Z,16.90
2022-10-19T18:56:54.922Z,17.70
2022-10-19T18:59:23.200Z,19.10
2022-10-19T19:01:51.539Z,18.30
2022-10-19T19:04:19.471Z,17.70
2022-10-19T19:06:47.355Z,19.80
2022-10-19T19:09:15.232Z,16.70
2022-10-19T19:11:43.197Z,15.60
2022-10-19T19:14:14.381Z,15.90
2022-10-19T19:16:43.905Z,13.90
2022-10-19T19:19:13.715Z,12.60
2022-10-19T19:21:44.889Z,10.90
2022-10-19T19:24:15.550Z,10.50
2022-10-19T19:26:49.443Z,13.70
2022-10-19T19:29:19.361Z,14.10
2022-10-19T19:31:48.005Z,11.70
2022-10-19T19:34:16.304Z,9.10
2022-10-19T19:36:48.394Z,10.80
2022-10-19T19:39:20.099Z,9.30
2022-10-19T19:41:49.390Z,10.20
2022-10-19T19:44:17.942Z,9.40
2022-10-19T19:46:46.340Z,9.60
2022-10-19T19:49:14.593Z,11.20
2022-10-19T19:51:42.907Z,10.40
2022-10-19T19:54:11.563Z,9.00
2022-10-19T19:56:40.168Z,10.90
2022-10-19T19:59:10.341Z,10.40
2022-10-19T20:01:39.545Z,11.00
2022-10-19T20:04:07.432Z,11.50
2022-10-19T20:06:37.508Z,12.90
2022-10-19T20:09:07.123Z,11.80
2022-10-19T20:11:38.373Z,13.30
2022-10-19T20:14:09.114Z,17.50
2022-10-19T20:16:37.109Z,14.50
2022-10-19T20:19:11.090Z,15.40
2022-10-19T20:21:40.525Z,14.00
2022-10-19T20:24:08.885Z,11.90
2022-10-19T20:26:37.242Z,13.50
2022-10-19T20:29:05.627Z,13.60
2022-10-19T20:31:39.462Z,18.60
2022-10-19T20:36:36.931Z,15.10
2022-10-19T20:39:04.835Z,13.90
2022-10-19T20:41:32.662Z,16.00
2022-10-19T20:44:00.635Z,12.70
2022-10-19T20:46:30.098Z,12.00
2022-10-19T20:49:00.208Z,12.30
2022-10-19T20:51:32.001Z,14.40
2022-10-19T20:54:02.653Z,15.10
2022-10-19T20:56:32.907Z,13.20
2022-10-19T20:59:06.319Z,11.90
2022-10-19T21:01:36.657Z,13.60
2022-10-19T21:04:06.410Z,13.90
2022-10-19T21:06:38.026Z,15.20
2022-10-19T21:09:06.513Z,15.60
2022-10-19T21:11:36.754Z,19.40
2022-10-19T21:14:08.786Z,15.50
2022-10-19T21:16:37.872Z,17.00
2022-10-19T21:19:13.129Z,16.10
2022-10-19T21:21:46.944Z,31.50
2022-10-19T21:24:20.839Z,28.30
2022-10-19T21:26:48.776Z,24.70
2022-10-19T21:29:17.238Z,20.50
2022-10-19T21:31:48.999Z,18.80
2022-10-19T21:34:21.260Z,18.80
2022-10-19T21:36:49.706Z,17.00
2022-10-19T21:39:18.427Z,18.70
2022-10-19T21:41:46.795Z,17.60
2022-10-19T21:44:16.525Z,17.10
2022-10-19T21:46:46.970Z,23.50
2022-10-19T21:49:16.519Z,17.30
2022-10-19T21:51:46.367Z,16.80
2022-10-19T21:54:18.007Z,17.20
2022-10-19T21:56:46.899Z,18.50
2022-10-19T21:59:15.399Z,23.10
2022-10-19T22:01:43.744Z,26.30
2022-10-19T22:04:17.292Z,21.80
2022-10-19T22:06:45.456Z,22.20
2022-10-19T22:09:16.549Z,19.90
2022-10-19T22:11:45.234Z,18.10
2022-10-19T22:14:14.928Z,20.80
2022-10-19T22:16:42.905Z,18.50
2022-10-19T22:19:11.972Z,16.60
2022-10-19T22:21:40.236Z,18.20
2022-10-19T22:24:12.238Z,21.10
2022-10-19T22:26:42.798Z,18.60
2022-10-19T22:29:10.661Z,19.40
2022-10-19T22:31:38.933Z,20.60
2022-10-19T22:34:10.235Z,21.20
2022-10-19T22:36:38.315Z,25.80
2022-10-19T22:39:07.156Z,25.30
2022-10-19T22:41:35.113Z,23.80
2022-10-19T22:44:03.010Z,27.70
2022-10-19T22:46:30.995Z,26.90
2022-10-19T22:48:58.997Z,23.30
2022-10-19T22:51:26.978Z,21.00
2022-10-19T22:53:54.835Z,24.30
2022-10-19T22:56:22.799Z,22.90
2022-10-19T22:58:50.727Z,25.50
2022-10-19T23:01:19.496Z,26.70
2022-10-19T23:03:47.471Z,29.70
2022-10-19T23:06:15.891Z,29.40
2022-10-19T23:08:44.824Z,27.20
2022-10-19T23:11:13.029Z,26.10
2022-10-19T23:13:42.017Z,27.40
2022-10-19T23:16:10.622Z,28.00
2022-10-19T23:18:40.826Z,28.30
2022-10-19T23:21:11.863Z,26.20
2022-10-19T23:23:40.447Z,27.30
2022-10-19T23:26:14.193Z,26.50
2022-10-19T23:28:44.029Z,26.60
2022-10-19T23:31:20.450Z,27.40
2022-10-19T23:33:48.424Z,27.00
2022-10-19T23:36:20.195Z,24.30
2022-10-19T23:38:50.039Z,23.10
2022-10-19T23:41:18.877Z,22.80
2022-10-19T23:43:47.262Z,21.50
2022-10-19T23:46:15.418Z,22.00
2022-10-19T23:53:10.233Z,24.80
2022-10-19T23:55:38.126Z,24.20
2022-10-19T23:58:05.964Z,24.50
